American Star — WDD7311 — position and weather

sailwx.info

Track history (hours):
 
Tides and Currents Weather Stations Pressure Air Temp Water Temp Dewpoint Dewpoint Depression Visibility Wind Speed Wind Dir Waves Ship Positions

American Star

Owner: American Cruise Lines, Inc, Delmar, DE. More information available from US FCC via Universal Licensing System and Coast Guard Vessel Documentation Center.

Last reported at 2014-Nov-12 05:21 UTC. Time now 2014-Dec-20 21:37 UTC.
Position N 31°59' W 081°03'.
Warning: this ship's position is 38 days out of date.

Length 60 m; draft 2.1 m.

Type: Ship (hazmat cat C). MMSI: 367184740.

Date/timePositionNaut miles runAvg speedWind from/ knotsBaromVisibWave heightAir tempDewpointWater temp
2014-Nov-12 05:21N 31°59' W 081°03'4 5.5
2014-Nov-12 04:33N 32°03' W 081°02'2 2.0
2014-Nov-12 03:33N 32°05' W 081°02'3 1.2
2014-Nov-12 01:29N 32°05' W 081°05'0 0.0
2014-Nov-12 00:23N 32°05' W 081°05'0 0.0
2014-Nov-11 23:26N 32°05' W 081°05'0 0.0
2014-Nov-11 22:32N 32°05' W 081°05'0 0.0
2014-Nov-11 21:32N 32°05' W 081°05'0 0.0
2014-Nov-11 20:32N 32°05' W 081°05'0 0.0
2014-Nov-11 16:32N 32°05' W 081°05'0 0.0
2014-Nov-11 14:23N 32°05' W 081°05'0 0.0
2014-Nov-11 12:32N 32°05' W 081°05'0 0.0
2014-Nov-11 11:32N 32°05' W 081°05'0 0.0
2014-Nov-11 10:32N 32°05' W 081°05'0 0.0
2014-Nov-11 08:17N 32°05' W 081°05'0 0.0
2014-Nov-11 06:29N 32°05' W 081°05'0 0.0
2014-Nov-11 05:32N 32°05' W 081°05'0 0.0
2014-Nov-11 03:32N 32°05' W 081°05'0 0.0
2014-Nov-11 02:20N 32°05' W 081°05'0 0.0
2014-Nov-11 00:15N 32°05' W 081°05'2 3.4
2014-Nov-10 23:33N 32°05' W 081°02'  
2014-Nov-05 21:08N 34°40' W 077°06'4 6.7
2014-Nov-05 20:33N 34°41' W 077°01'7 7.0
2014-Nov-05 19:33N 34°43' W 076°53'7 6.5
2014-Nov-05 18:33N 34°43' W 076°45'2 2.4
2014-Nov-05 17:33N 34°43' W 076°42'0 0.0
2014-Nov-05 16:33N 34°43' W 076°42'0 0.0
2014-Nov-05 15:33N 34°43' W 076°42'0 0.0
2014-Nov-05 14:33N 34°43' W 076°42'0 0.0
2014-Nov-05 13:33N 34°43' W 076°42'0 0.0
2014-Nov-05 12:33N 34°43' W 076°42'0 0.3
2014-Nov-05 11:33N 34°43' W 076°42'6 5.5
2014-Nov-05 10:33N 34°48' W 076°41'5 5.1
2014-Nov-05 09:33N 34°53' W 076°41'6 5.6
2014-Nov-05 08:31N 34°59' W 076°41'8 8.5
2014-Nov-05 07:33N 35°04' W 076°33'7 6.4
2014-Nov-05 06:32N 35°11' W 076°33'7 6.8
2014-Nov-05 05:33N 35°17' W 076°36'10 7.6
2014-Nov-05 04:16N 35°26' W 076°34'30 6.2
2014-Nov-04 23:29N 35°40' W 076°02'201 4.5
2014-Nov-03 02:33N 39°00' W 076°23'1111.1
2014-Nov-03 01:33N 39°11' W 076°27'10 9.7
2014-Nov-03 00:33N 39°17' W 076°36'0 0.1
2014-Nov-02 23:32N 39°17' W 076°36'0 0.0
2014-Nov-02 22:32N 39°17' W 076°36'0 0.0
2014-Nov-02 21:32N 39°17' W 076°36'0 0.0
2014-Nov-02 20:32N 39°17' W 076°36'0 0.0
2014-Nov-02 19:32N 39°17' W 076°36'0 0.0
2014-Nov-02 18:26N 39°17' W 076°36'0 0.0
2014-Nov-02 17:32N 39°17' W 076°36'0 0.0
2014-Nov-02 16:20N 39°17' W 076°36'0 0.0
2014-Nov-02 15:32N 39°17' W 076°36'0 0.0
2014-Nov-02 14:32N 39°17' W 076°36'0 0.0
2014-Nov-02 13:32N 39°17' W 076°36'0 0.0
2014-Nov-02 12:32N 39°17' W 076°36'0 0.0
2014-Nov-02 11:32N 39°17' W 076°36'0 0.0
2014-Nov-02 10:26N 39°17' W 076°36'0 0.0
2014-Nov-02 09:32N 39°17' W 076°36'0 0.0
2014-Nov-02 08:32N 39°17' W 076°36'0 0.0
2014-Nov-02 07:32N 39°17' W 076°36'0 0.0
2014-Nov-02 06:29N 39°17' W 076°36'0 0.0
2014-Nov-02 05:32N 39°17' W 076°36'  
Track history (hours):
 
Tides and Currents Weather Stations Pressure Air Temp Water Temp Dewpoint Dewpoint Depression Visibility Wind Speed Wind Dir Waves Ship Positions

American Star

Owner: American Cruise Lines, Inc, Delmar, DE. More information available from US FCC via Universal Licensing System and Coast Guard Vessel Documentation Center.

Last reported at 2014-Nov-12 05:21 UTC. Time now 2014-Dec-20 21:37 UTC.
Position N 31°59' W 081°03'.
Warning: this ship's position is 38 days out of date.

Length 60 m; draft 2.1 m.

Type: Ship (hazmat cat C). MMSI: 367184740.

Date/timePositionNaut miles runAvg speedWind from/ knotsBaromVisibWave heightAir tempDewpointWater temp
2014-Nov-12 05:21N 31°59' W 081°03'4 5.5
2014-Nov-12 04:33N 32°03' W 081°02'2 2.0
2014-Nov-12 03:33N 32°05' W 081°02'3 1.2
2014-Nov-12 01:29N 32°05' W 081°05'0 0.0
2014-Nov-12 00:23N 32°05' W 081°05'0 0.0
2014-Nov-11 23:26N 32°05' W 081°05'0 0.0
2014-Nov-11 22:32N 32°05' W 081°05'0 0.0
2014-Nov-11 21:32N 32°05' W 081°05'0 0.0
2014-Nov-11 20:32N 32°05' W 081°05'0 0.0
2014-Nov-11 16:32N 32°05' W 081°05'0 0.0
2014-Nov-11 14:23N 32°05' W 081°05'0 0.0
2014-Nov-11 12:32N 32°05' W 081°05'0 0.0
2014-Nov-11 11:32N 32°05' W 081°05'0 0.0
2014-Nov-11 10:32N 32°05' W 081°05'0 0.0
2014-Nov-11 08:17N 32°05' W 081°05'0 0.0
2014-Nov-11 06:29N 32°05' W 081°05'0 0.0
2014-Nov-11 05:32N 32°05' W 081°05'0 0.0
2014-Nov-11 03:32N 32°05' W 081°05'0 0.0
2014-Nov-11 02:20N 32°05' W 081°05'0 0.0
2014-Nov-11 00:15N 32°05' W 081°05'2 3.4
2014-Nov-10 23:33N 32°05' W 081°02'  
2014-Nov-05 21:08N 34°40' W 077°06'4 6.7
2014-Nov-05 20:33N 34°41' W 077°01'7 7.0
2014-Nov-05 19:33N 34°43' W 076°53'7 6.5
2014-Nov-05 18:33N 34°43' W 076°45'2 2.4
2014-Nov-05 17:33N 34°43' W 076°42'0 0.0
2014-Nov-05 16:33N 34°43' W 076°42'0 0.0
2014-Nov-05 15:33N 34°43' W 076°42'0 0.0
2014-Nov-05 14:33N 34°43' W 076°42'0 0.0
2014-Nov-05 13:33N 34°43' W 076°42'0 0.0
2014-Nov-05 12:33N 34°43' W 076°42'0 0.3
2014-Nov-05 11:33N 34°43' W 076°42'6 5.5
2014-Nov-05 10:33N 34°48' W 076°41'5 5.1
2014-Nov-05 09:33N 34°53' W 076°41'6 5.6
2014-Nov-05 08:31N 34°59' W 076°41'8 8.5
2014-Nov-05 07:33N 35°04' W 076°33'7 6.4
2014-Nov-05 06:32N 35°11' W 076°33'7 6.8
2014-Nov-05 05:33N 35°17' W 076°36'10 7.6
2014-Nov-05 04:16N 35°26' W 076°34'30 6.2
2014-Nov-04 23:29N 35°40' W 076°02'201 4.5
2014-Nov-03 02:33N 39°00' W 076°23'1111.1
2014-Nov-03 01:33N 39°11' W 076°27'10 9.7
2014-Nov-03 00:33N 39°17' W 076°36'0 0.1
2014-Nov-02 23:32N 39°17' W 076°36'0 0.0
2014-Nov-02 22:32N 39°17' W 076°36'0 0.0
2014-Nov-02 21:32N 39°17' W 076°36'0 0.0
2014-Nov-02 20:32N 39°17' W 076°36'0 0.0
2014-Nov-02 19:32N 39°17' W 076°36'0 0.0
2014-Nov-02 18:26N 39°17' W 076°36'0 0.0
2014-Nov-02 17:32N 39°17' W 076°36'0 0.0
2014-Nov-02 16:20N 39°17' W 076°36'0 0.0
2014-Nov-02 15:32N 39°17' W 076°36'0 0.0
2014-Nov-02 14:32N 39°17' W 076°36'0 0.0
2014-Nov-02 13:32N 39°17' W 076°36'0 0.0
2014-Nov-02 12:32N 39°17' W 076°36'0 0.0
2014-Nov-02 11:32N 39°17' W 076°36'0 0.0
2014-Nov-02 10:26N 39°17' W 076°36'0 0.0
2014-Nov-02 09:32N 39°17' W 076°36'0 0.0
2014-Nov-02 08:32N 39°17' W 076°36'0 0.0
2014-Nov-02 07:32N 39°17' W 076°36'0 0.0
2014-Nov-02 06:29N 39°17' W 076°36'0 0.0
2014-Nov-02 05:32N 39°17' W 076°36'  

Dump ship's entire track history